Time;durP1;ratioP1;P1;durP2;ratioP2;P2;SDS_P1;SDS_P2;PMS_P1;PMS_P2;Temp;Humidity;BMP_temperature;BMP_pressure;BME280_temperature;BME280_humidity;BME280_pressure;Samples;Min_cycle;Max_cycle;Signal;HPM_P1;HPM_P2
2021/06/18 00:00:10;;;;;;;12.75;3.85;;;;;;;14.20;65.85;100714.47;5035639;28;20037;-70
2021/06/18 00:02:37;;;;;;;7.18;3.40;;;;;;;14.18;66.11;100724.38;5022149;28;20034;-74
2021/06/18 00:05:07;;;;;;;5.43;3.50;;;;;;;14.20;66.10;100725.94;5015509;28;20049;-72
2021/06/18 00:07:33;;;;;;;5.72;3.40;;;;;;;14.23;66.00;100720.41;5015657;28;20034;-70
2021/06/18 00:09:59;;;;;;;5.85;3.25;;;;;;;14.25;65.65;100725.59;5015522;28;20444;-71
2021/06/18 00:12:25;;;;;;;12.02;5.47;;;;;;;14.25;66.02;100722.94;5015841;28;20041;-71
2021/06/18 00:14:51;;;;;;;7.68;3.88;;;;;;;14.24;65.92;100722.13;5015424;28;20042;-71
2021/06/18 00:17:17;;;;;;;10.20;3.80;;;;;;;14.23;66.18;100727.53;5015496;28;20038;-70
2021/06/18 00:19:43;;;;;;;9.65;4.20;;;;;;;14.22;66.02;100731.19;5015073;28;20045;-70
2021/06/18 00:22:09;;;;;;;5.93;3.30;;;;;;;14.26;66.59;100735.28;5014293;28;20145;-69
2021/06/18 00:24:34;;;;;;;7.57;3.53;;;;;;;14.24;66.37;100731.88;5014281;28;20033;-70
2021/06/18 00:27:00;;;;;;;8.30;4.10;;;;;;;14.18;66.18;100727.91;5015229;28;20074;-70
2021/06/18 00:29:26;;;;;;;7.40;3.60;;;;;;;14.13;66.33;100730.06;5015228;28;20479;-71
2021/06/18 00:31:59;;;;;;;6.68;3.80;;;;;;;14.11;66.39;100747.09;5015005;28;20030;-70
2021/06/18 00:34:25;;;;;;;6.57;3.40;;;;;;;14.06;66.50;100747.44;5014798;28;20038;-74
2021/06/18 00:36:50;;;;;;;9.00;4.00;;;;;;;13.97;66.69;100743.66;5013526;28;20053;-72
2021/06/18 00:39:16;;;;;;;8.43;3.88;;;;;;;13.92;67.01;100753.78;5015110;28;20176;-72
2021/06/18 00:41:42;;;;;;;9.07;3.88;;;;;;;13.89;66.82;100754.88;5015089;28;20042;-70
2021/06/18 00:44:08;;;;;;;7.72;3.90;;;;;;;13.90;67.06;100755.69;5014709;28;20045;-71
2021/06/18 00:46:34;;;;;;;6.88;3.95;;;;;;;13.87;67.42;100769.25;5015287;28;20038;-71
2021/06/18 00:48:59;;;;;;;5.88;3.33;;;;;;;13.86;67.29;100770.19;5013597;28;20187;-73
2021/06/18 00:51:25;;;;;;;8.63;3.67;;;;;;;13.85;67.19;100773.81;5014731;28;20042;-68
2021/06/18 00:53:52;;;;;;;7.85;3.42;;;;;;;13.84;66.98;100766.78;5014875;28;20034;-70
2021/06/18 00:56:18;;;;;;;9.80;3.70;;;;;;;13.83;67.10;100770.41;5014819;28;20041;-72
2021/06/18 00:58:45;;;;;;;7.13;3.67;;;;;;;13.80;66.87;100765.31;5014842;28;20038;-74
2021/06/18 01:01:12;;;;;;;7.15;3.20;;;;;;;13.79;67.25;100767.13;5016910;28;20034;-72
2021/06/18 01:03:37;;;;;;;6.93;3.03;;;;;;;13.77;67.50;100771.72;5034234;28;20029;-72
2021/06/18 01:06:03;;;;;;;6.85;3.50;;;;;;;13.74;67.17;100762.16;5034205;28;20214;-72
2021/06/18 01:08:39;;;;;;;8.88;3.85;;;;;;;13.68;67.64;100765.25;5034160;28;20537;-71
2021/06/18 01:11:32;;;;;;;6.88;3.33;;;;;;;13.68;67.53;100775.91;5034179;28;20382;-70
2021/06/18 01:14:34;;;;;;;11.57;4.00;;;;;;;13.69;67.70;100769.59;5033106;28;20037;-71
2021/06/18 01:17:04;;;;;;;6.80;3.72;;;;;;;13.71;67.46;100775.66;5033933;28;20045;-71
2021/06/18 01:19:58;;;;;;;11.20;3.92;;;;;;;13.72;67.72;100780.03;5033136;28;20124;-74
2021/06/18 01:22:25;;;;;;;9.32;3.72;;;;;;;13.75;67.78;100774.47;5034302;28;20041;-70
2021/06/18 01:25:00;;;;;;;7.93;3.42;;;;;;;13.78;67.69;100768.06;5032299;28;20037;-72
2021/06/18 01:27:32;;;;;;;8.73;3.50;;;;;;;13.77;67.32;100768.19;5032858;28;20037;-69
2021/06/18 01:30:10;;;;;;;10.35;4.20;;;;;;;13.76;67.39;100770.00;5033859;28;20040;-71
2021/06/18 01:33:01;;;;;;;7.65;3.50;;;;;;;13.73;67.44;100771.09;5034214;28;20367;-70
2021/06/18 01:35:36;;;;;;;8.60;3.38;;;;;;;13.74;67.57;100777.25;5033857;28;20041;-70
2021/06/18 01:38:04;;;;;;;11.07;3.83;;;;;;;13.76;67.58;100785.97;5032808;28;20073;-73
2021/06/18 01:40:30;;;;;;;7.75;3.75;;;;;;;13.79;67.58;100784.88;5006292;28;20046;-72
2021/06/18 01:42:58;;;;;;;9.32;3.25;;;;;;;13.79;67.58;100784.88;4992396;28;20034;-71
2021/06/18 01:45:26;;;;;;;9.55;4.72;;;;;;;13.81;67.98;100782.97;4992602;28;20516;-70
2021/06/18 01:47:54;;;;;;;12.00;4.05;;;;;;;13.83;67.70;100784.56;4992544;28;20480;-74
2021/06/18 01:50:22;;;;;;;13.23;4.38;;;;;;;13.87;67.51;100787.84;4992946;28;20045;-72
2021/06/18 01:53:04;;;;;;;9.15;3.40;;;;;;;13.94;67.42;100793.56;4994043;28;20073;-70
2021/06/18 01:55:31;;;;;;;9.13;3.83;;;;;;;13.99;67.19;100794.91;4991696;28;20121;-70
2021/06/18 01:57:59;;;;;;;8.73;3.33;;;;;;;14.02;66.96;100797.34;4992569;28;20173;-74
2021/06/18 02:00:26;;;;;;;7.32;3.15;;;;;;;14.05;67.05;100801.59;4993154;28;20045;-71
2021/06/18 02:02:52;;;;;;;6.73;3.40;;;;;;;14.10;66.72;100810.09;5020398;28;21838;-72
2021/06/18 02:05:19;;;;;;;6.45;3.38;;;;;;;14.12;67.24;100812.63;4978468;28;20038;-78
2021/06/18 02:07:46;;;;;;;12.73;3.92;;;;;;;14.15;67.07;100809.75;4991660;28;20372;-73
2021/06/18 02:10:12;;;;;;;10.57;4.03;;;;;;;14.17;67.11;100810.50;4993123;28;20177;-74
2021/06/18 02:12:39;;;;;;;8.90;3.80;;;;;;;14.18;66.80;100813.03;4992447;28;20065;-71
2021/06/18 02:15:07;;;;;;;9.60;3.90;;;;;;;14.19;66.73;100809.41;4992299;28;20069;-70
2021/06/18 02:17:33;;;;;;;12.05;4.05;;;;;;;14.23;66.75;100810.00;4993706;28;20443;-69
2021/06/18 02:20:00;;;;;;;8.68;3.80;;;;;;;14.26;66.65;100820.44;4976048;28;20058;-70
2021/06/18 02:22:26;;;;;;;7.63;3.55;;;;;;;14.25;67.10;100824.06;4992308;28;20045;-69
2021/06/18 02:24:52;;;;;;;9.90;3.53;;;;;;;14.28;67.20;100818.53;4992144;28;20038;-70
2021/06/18 02:27:18;;;;;;;10.68;3.80;;;;;;;14.34;67.37;100818.06;4992183;28;20499;-70
2021/06/18 02:29:44;;;;;;;7.38;3.80;;;;;;;14.42;67.72;100824.59;4992307;28;20034;-76
2021/06/18 02:32:12;;;;;;;11.25;3.67;;;;;;;14.46;67.62;100829.59;4993464;28;20046;-72
2021/06/18 02:34:38;;;;;;;6.05;3.60;;;;;;;14.53;66.90;100822.03;4993531;28;20127;-71
2021/06/18 02:37:05;;;;;;;11.73;4.00;;;;;;;14.58;67.17;100835.84;4991788;28;20133;-71
2021/06/18 02:39:31;;;;;;;15.93;4.32;;;;;;;14.63;67.27;100832.78;4993119;28;20049;-71
2021/06/18 02:41:56;;;;;;;8.05;3.80;;;;;;;14.69;66.86;100843.88;4992958;28;20034;-72
2021/06/18 02:44:22;;;;;;;9.55;3.88;;;;;;;14.77;66.84;100839.78;4993156;28;20128;-70
2021/06/18 02:47:07;;;;;;;12.55;4.15;;;;;;;14.84;67.24;100841.00;4993251;28;20101;-76
2021/06/18 02:49:41;;;;;;;9.23;4.18;;;;;;;14.88;67.40;100847.81;4975909;28;20038;-72
2021/06/18 02:52:18;;;;;;;11.10;4.15;;;;;;;14.94;68.24;100844.69;4992998;28;20125;-72
2021/06/18 02:54:46;;;;;;;11.40;4.60;;;;;;;14.98;69.06;100843.47;4975646;28;20033;-72
2021/06/18 02:57:18;;;;;;;;;;;;;;;15.03;69.44;100851.94;4992197;28;20046;-73
2021/06/18 02:59:52;;;;;;;8.45;4.22;;;;;;;15.11;69.38;100858.50;4992016;28;19916;-70
2021/06/18 03:02:20;;;;;;;11.98;4.72;;;;;;;15.18;69.29;100855.25;5004220;28;20061;-72
2021/06/18 03:04:46;;;;;;;12.00;4.32;;;;;;;15.27;68.98;100864.34;4996259;28;20030;-75
2021/06/18 03:07:15;;;;;;;13.43;4.55;;;;;;;15.37;68.89;100851.97;5010022;28;20029;-76
2021/06/18 03:09:45;;;;;;;11.40;4.70;;;;;;;15.47;69.76;100862.78;5002510;28;20058;-74
2021/06/18 03:12:12;;;;;;;8.57;4.60;;;;;;;15.54;69.55;100863.16;5004278;28;20137;-74
2021/06/18 03:14:43;;;;;;;8.70;4.77;;;;;;;15.61;69.88;100856.34;4992513;28;20068;-73
2021/06/18 03:17:10;;;;;;;12.13;5.70;;;;;;;15.69;69.81;100858.44;4992336;28;20379;-75
2021/06/18 03:19:41;;;;;;;18.00;4.97;;;;;;;15.81;69.40;100856.59;4991659;28;20095;-74
2021/06/18 03:22:08;;;;;;;14.63;5.00;;;;;;;15.93;69.44;100854.78;4991390;28;20081;-73
2021/06/18 03:24:34;;;;;;;15.07;5.60;;;;;;;16.03;68.10;100854.91;4991360;28;20042;-72
2021/06/18 03:27:01;;;;;;;10.30;5.15;;;;;;;16.15;68.53;100856.56;4991302;28;20096;-74
2021/06/18 03:29:27;;;;;;;10.38;4.78;;;;;;;16.27;68.17;100858.19;4991240;28;20076;-73
2021/06/18 03:31:55;;;;;;;9.17;5.07;;;;;;;16.41;67.63;100853.56;4992287;28;20498;-74
2021/06/18 03:34:23;;;;;;;13.77;5.13;;;;;;;16.50;67.35;100842.13;4991623;28;20034;-71
2021/06/18 03:36:50;;;;;;;8.18;4.63;;;;;;;16.62;67.21;100838.44;4990981;28;20046;-74
2021/06/18 03:39:16;;;;;;;14.02;5.75;;;;;;;16.75;67.33;100834.72;4991013;28;20479;-73
2021/06/18 03:41:42;;;;;;;13.60;5.50;;;;;;;16.87;68.02;100836.31;4990983;28;20030;-72
2021/06/18 03:44:08;;;;;;;9.57;4.88;;;;;;;16.98;67.61;100835.44;4991054;28;20053;-78
2021/06/18 03:46:33;;;;;;;10.52;4.80;;;;;;;17.09;65.24;100837.22;4991282;28;20030;-76
2021/06/18 03:49:00;;;;;;;10.40;4.88;;;;;;;17.22;64.94;100837.84;4975141;28;20038;-75
2021/06/18 03:51:26;;;;;;;15.27;5.07;;;;;;;17.36;63.74;100838.44;4991225;28;20038;-72
2021/06/18 03:53:56;;;;;;;8.35;4.70;;;;;;;17.71;62.83;100847.91;4992260;28;20041;-73
2021/06/18 03:56:22;;;;;;;7.13;3.72;;;;;;;19.64;54.80;100845.41;4992102;28;20068;-71
2021/06/18 03:58:48;;;;;;;6.72;2.25;;;;;;;21.70;46.36;100835.56;4992116;28;20034;-72
2021/06/18 04:01:14;;;;;;;9.20;3.90;;;;;;;23.34;45.04;100845.63;4996507;28;20088;-74
2021/06/18 04:03:42;;;;;;;7.90;2.55;;;;;;;24.68;38.74;100848.25;5030313;28;20088;-76
2021/06/18 04:06:08;;;;;;;6.03;2.38;;;;;;;25.59;36.04;100838.38;5030211;28;20036;-73
2021/06/18 04:08:36;;;;;;;6.72;2.20;;;;;;;26.48;34.08;100842.69;5031284;28;20029;-73
2021/06/18 04:11:02;;;;;;;;;;;;;;;27.37;32.93;100848.63;5031793;28;20179;-72
2021/06/18 04:13:28;;;;;;;3.17;2.22;;;;;;;28.14;31.64;100843.94;5031243;28;20508;-73
2021/06/18 04:15:54;;;;;;;4.25;2.33;;;;;;;28.75;29.29;100850.31;5013439;28;20579;-76
2021/06/18 04:18:22;;;;;;;7.25;1.92;;;;;;;28.75;27.84;100858.50;5030935;28;20099;-77
2021/06/18 04:20:51;;;;;;;3.47;2.00;;;;;;;28.64;28.06;100864.53;5034277;28;20044;-76
2021/06/18 04:23:19;;;;;;;3.72;2.30;;;;;;;29.75;26.45;100853.88;5035226;28;20029;-76
2021/06/18 04:25:45;;;;;;;4.40;1.90;;;;;;;30.86;25.02;100853.63;5034956;28;20069;-73
2021/06/18 04:28:11;;;;;;;4.68;1.80;;;;;;;31.32;24.10;100859.69;5049968;28;20118;-73
2021/06/18 04:30:37;;;;;;;2.20;1.50;;;;;;;31.70;23.62;100864.97;5034579;28;20498;-73
2021/06/18 04:33:03;;;;;;;2.00;1.25;;;;;;;31.71;22.86;100866.59;5034721;28;20045;-72
2021/06/18 04:35:29;;;;;;;4.72;1.60;;;;;;;31.86;23.11;100865.38;5034854;28;20049;-74
2021/06/18 04:37:54;;;;;;;2.15;0.95;;;;;;;32.01;22.05;100871.25;5034817;28;20041;-78
2021/06/18 04:40:20;;;;;;;2.72;1.10;;;;;;;32.97;21.22;100869.63;5034328;28;20041;-75
2021/06/18 04:42:46;;;;;;;4.40;1.33;;;;;;;33.06;20.97;100863.53;5034533;28;20037;-75
2021/06/18 04:45:13;;;;;;;5.87;1.63;;;;;;;33.76;20.64;100866.41;5034550;28;20367;-77
2021/06/18 04:47:39;;;;;;;;;;;;;;;34.63;19.94;100871.84;5035071;28;20122;-73
2021/06/18 04:50:05;;;;;;;5.85;1.38;;;;;;;35.31;19.78;100864.34;5034667;28;20318;-77
2021/06/18 04:52:31;;;;;;;4.00;0.98;;;;;;;35.74;18.73;100869.28;5034619;28;20124;-75
2021/06/18 04:55:00;;;;;;;3.23;1.10;;;;;;;36.09;18.52;100870.78;5034447;28;20124;-75
2021/06/18 04:57:27;;;;;;;6.10;1.75;;;;;;;36.58;18.29;100870.72;5033353;28;20807;-72
2021/06/18 04:59:53;;;;;;;3.47;1.60;;;;;;;35.57;18.62;100869.41;5034700;28;20068;-74
2021/06/18 05:02:18;;;;;;;4.77;1.30;;;;;;;36.21;17.87;100871.47;5022807;28;20411;-79
2021/06/18 05:04:44;;;;;;;3.97;1.40;;;;;;;36.34;18.12;100869.38;5014639;28;20038;-80
2021/06/18 05:07:10;;;;;;;1.90;1.27;;;;;;;36.70;17.28;100866.94;5014773;28;20122;-79
2021/06/18 05:09:36;;;;;;;3.83;1.50;;;;;;;37.55;17.23;100866.91;5013490;28;20093;-79
2021/06/18 05:12:02;;;;;;;5.10;1.45;;;;;;;38.30;16.50;100862.97;5014240;28;20121;-78
2021/06/18 05:14:29;;;;;;;2.90;1.50;;;;;;;38.34;16.14;100871.56;5014484;28;20085;-77
2021/06/18 05:16:55;;;;;;;5.20;1.40;;;;;;;38.29;16.18;100879.84;5013361;28;20124;-76
2021/06/18 05:19:21;;;;;;;3.70;1.50;;;;;;;38.70;15.96;100868.78;4996289;28;20368;-75
2021/06/18 05:21:47;;;;;;;;;;;;;;;39.09;15.96;100872.88;5013357;28;20446;-76
2021/06/18 05:24:12;;;;;;;;;;;;;;;38.59;15.25;100872.66;5013223;28;20008;-81
2021/06/18 05:26:39;;;;;;;;;;;;;;;37.79;15.95;100877.47;5014164;28;20316;-74
2021/06/18 05:29:04;;;;;;;;;;;;;;;37.68;17.00;100871.09;5014105;28;19914;-82
2021/06/18 05:31:30;;;;;;;4.80;1.30;;;;;;;38.70;16.14;100866.00;5012917;28;20020;-81
2021/06/18 05:33:56;;;;;;;3.45;1.40;;;;;;;38.73;15.79;100868.19;5014426;28;20351;-77
2021/06/18 05:36:22;;;;;;;3.22;1.30;;;;;;;39.22;15.23;100868.69;5013796;28;20038;-75
2021/06/18 05:38:47;;;;;;;2.03;1.13;;;;;;;39.97;14.98;100873.34;5012247;28;20042;-75
2021/06/18 05:41:13;;;;;;;3.45;1.23;;;;;;;40.35;14.85;100857.00;5011910;28;20037;-74
2021/06/18 05:43:39;;;;;;;4.00;1.65;;;;;;;40.06;14.51;100873.56;5012328;28;20124;-75
2021/06/18 05:46:05;;;;;;;5.95;1.08;;;;;;;40.84;14.09;100868.22;5013511;28;20077;-75
2021/06/18 05:48:30;;;;;;;2.88;1.17;;;;;;;40.83;14.01;100866.59;5013677;28;20474;-72
2021/06/18 05:50:56;;;;;;;1.77;0.93;;;;;;;39.99;14.14;100870.28;5013435;28;20095;-76
2021/06/18 05:53:22;;;;;;;1.48;1.10;;;;;;;39.87;14.29;100859.56;5028441;28;20047;-73
2021/06/18 05:55:48;;;;;;;;;;;;;;;40.80;13.14;100861.59;5012071;28;20529;-74
2021/06/18 05:58:14;;;;;;;1.20;1.10;;;;;;;38.78;14.64;100862.72;5012788;28;19913;-73
2021/06/18 06:00:41;;;;;;;0.95;0.77;;;;;;;39.41;14.67;100864.19;5011998;28;20045;-79
2021/06/18 06:03:07;;;;;;;2.35;0.98;;;;;;;38.74;14.52;100869.88;5030236;28;20083;-77
2021/06/18 06:05:33;;;;;;;4.22;1.77;;;;;;;38.46;14.00;100863.81;5033421;28;20536;-84
2021/06/18 06:07:59;;;;;;;1.83;1.00;;;;;;;38.65;14.54;100866.03;5048841;28;20029;-76
2021/06/18 06:10:25;;;;;;;3.63;1.27;;;;;;;38.93;14.17;100869.31;5033396;28;20034;-85
2021/06/18 06:12:51;;;;;;;2.33;1.02;;;;;;;39.41;13.88;100864.19;5015396;28;20124;-78
2021/06/18 06:15:17;;;;;;;2.55;0.82;;;;;;;39.82;12.98;100859.56;5031593;28;20070;-77
2021/06/18 06:17:44;;;;;;;2.97;0.95;;;;;;;40.64;12.24;100863.69;5033467;28;20044;-74
2021/06/18 06:20:11;;;;;;;2.08;0.88;;;;;;;40.28;12.62;100862.06;5047937;28;20402;-77
2021/06/18 06:22:37;;;;;;;1.92;0.88;;;;;;;40.78;11.98;100858.28;5032893;28;20042;-73
2021/06/18 06:25:04;;;;;;;1.58;0.93;;;;;;;41.24;11.96;100855.03;5032821;28;20033;-75
2021/06/18 06:27:32;;;;;;;1.67;0.70;;;;;;;41.44;11.75;100858.69;5032824;28;20068;-78
2021/06/18 06:29:58;;;;;;;0.90;0.80;;;;;;;41.30;11.79;100853.00;5048380;28;20502;-74
2021/06/18 06:32:24;;;;;;;1.60;0.73;;;;;;;42.59;11.63;100859.47;5032831;28;20378;-78
2021/06/18 06:34:50;;;;;;;1.38;0.90;;;;;;;42.05;11.54;100862.56;5031862;28;20033;-77
2021/06/18 06:37:15;;;;;;;;;;;;;;;42.13;11.76;100861.88;5033002;28;20465;-77
2021/06/18 06:39:41;;;;;;;3.85;1.30;;;;;;;41.20;12.24;100859.50;5032642;28;20008;-77
2021/06/18 06:42:07;;;;;;;2.72;1.08;;;;;;;41.17;12.65;100866.47;5031572;28;20387;-78
2021/06/18 06:44:33;;;;;;;3.13;1.10;;;;;;;41.44;12.37;100853.97;5031463;28;20048;-79
2021/06/18 06:46:59;;;;;;;3.22;1.50;;;;;;;40.88;12.38;100861.78;5031293;28;20489;-77
2021/06/18 06:49:25;;;;;;;3.53;1.30;;;;;;;40.53;12.74;100860.19;5032438;28;20552;-76
2021/06/18 06:51:51;;;;;;;2.60;1.48;;;;;;;41.06;12.75;100862.19;5032457;28;20072;-79
2021/06/18 06:54:17;;;;;;;3.85;1.20;;;;;;;42.58;11.64;100855.03;5014727;28;20064;-77
2021/06/18 06:56:43;;;;;;;6.78;1.60;;;;;;;42.13;11.54;100861.06;5032462;28;20061;-79
2021/06/18 06:59:09;;;;;;;7.10;1.20;;;;;;;42.48;12.15;100858.81;5014795;28;20045;-75
2021/06/18 07:01:34;;;;;;;;;;;;;;;41.37;12.50;100857.06;5027526;28;20178;-83
2021/06/18 07:04:03;;;;;;;;;;;;;;;40.71;12.74;100865.00;5011614;28;20390;-75
2021/06/18 07:06:32;;;;;;;3.85;1.52;;;;;;;41.05;12.44;100858.59;5012103;28;20023;-77
2021/06/18 07:08:59;;;;;;;5.07;1.33;;;;;;;40.95;12.74;100864.25;5012543;28;20045;-78
2021/06/18 07:11:24;;;;;;;;;;;;;;;39.82;13.81;100865.13;5012777;28;20045;-77
2021/06/18 07:13:50;;;;;;;2.20;1.50;;;;;;;38.57;14.21;100859.13;5012358;28;19913;-83
2021/06/18 07:16:16;;;;;;;4.78;1.50;;;;;;;38.02;14.99;100867.06;5012695;28;20029;-75
2021/06/18 07:18:42;;;;;;;3.63;1.70;;;;;;;39.41;14.02;100866.97;5012840;28;20038;-77
2021/06/18 07:21:08;;;;;;;3.30;1.67;;;;;;;39.69;13.84;100866.59;5012481;28;20099;-76
2021/06/18 07:23:33;;;;;;;5.03;1.55;;;;;;;40.50;12.94;100856.03;5012563;28;20464;-77
2021/06/18 07:25:59;;;;;;;3.58;1.30;;;;;;;40.57;12.92;100864.06;4995264;28;20042;-79
2021/06/18 07:28:25;;;;;;;1.80;1.40;;;;;;;41.18;12.60;100864.56;5027096;28;20145;-79
2021/06/18 07:30:51;;;;;;;;;;;;;;;40.71;13.13;100859.47;5012992;28;20050;-77
2021/06/18 07:33:17;;;;;;;1.60;1.10;;;;;;;40.37;13.00;100863.09;5012391;28;19909;-76
2021/06/18 07:35:43;;;;;;;1.85;1.17;;;;;;;39.55;13.34;100861.63;5012348;28;20050;-80
2021/06/18 07:38:09;;;;;;;6.75;1.60;;;;;;;39.09;13.98;100864.56;5012302;28;20598;-77
2021/06/18 07:40:34;;;;;;;;;;;;;;;39.22;13.94;100852.94;5012832;28;20064;-80
2021/06/18 07:43:01;;;;;;;4.18;1.35;;;;;;;38.10;14.69;100855.47;5011117;28;20282;-83
2021/06/18 07:45:27;;;;;;;3.42;1.10;;;;;;;38.78;14.11;100854.41;5012157;28;20042;-77
2021/06/18 07:47:53;;;;;;;1.75;1.17;;;;;;;38.48;14.61;100845.03;5012250;28;20040;-77
2021/06/18 07:50:20;;;;;;;2.13;1.40;;;;;;;39.24;14.16;100844.34;5012408;28;20376;-79
2021/06/18 07:52:46;;;;;;;2.63;1.20;;;;;;;40.22;13.35;100841.88;5012148;28;20427;-78
2021/06/18 07:55:17;;;;;;;2.72;1.20;;;;;;;40.33;13.48;100848.16;5014641;28;20124;-77
2021/06/18 07:57:43;;;;;;;1.73;1.30;;;;;;;38.74;14.30;100857.97;5016530;28;20102;-81
2021/06/18 08:00:09;;;;;;;5.63;1.40;;;;;;;39.75;13.93;100852.41;5016246;28;20124;-77
2021/06/18 08:02:38;;;;;;;4.25;1.50;;;;;;;39.12;14.57;100847.41;5029792;28;20385;-78
2021/06/18 08:05:04;;;;;;;5.57;1.58;;;;;;;39.61;13.96;100849.41;5034494;28;20026;-82
2021/06/18 08:07:30;;;;;;;2.13;1.30;;;;;;;41.35;12.74;100848.22;5035341;28;20041;-76
2021/06/18 08:09:56;;;;;;;1.75;1.35;;;;;;;40.48;12.77;100838.88;5036731;28;20332;-78
2021/06/18 08:12:22;;;;;;;2.72;1.10;;;;;;;38.54;14.10;100845.03;5034364;28;20529;-76
2021/06/18 08:14:51;;;;;;;2.28;1.17;;;;;;;38.24;14.23;100839.19;5035629;28;20052;-80
2021/06/18 08:17:17;;;;;;;2.92;1.40;;;;;;;38.74;14.69;100836.66;5035286;28;20439;-76
2021/06/18 08:19:43;;;;;;;2.17;1.52;;;;;;;38.31;13.74;100833.44;5035259;28;20080;-77
2021/06/18 08:22:09;;;;;;;1.10;1.00;;;;;;;38.85;13.95;100832.00;5035141;28;20033;-79
2021/06/18 08:24:35;;;;;;;;;;;;;;;38.75;13.62;100832.03;5034979;28;20060;-80
2021/06/18 08:27:01;;;;;;;2.10;1.13;;;;;;;39.58;13.38;100824.22;5035254;28;20381;-75
2021/06/18 08:29:27;;;;;;;2.33;1.20;;;;;;;39.54;13.28;100832.28;5035124;28;20033;-77
2021/06/18 08:31:53;;;;;;;2.65;1.17;;;;;;;38.35;14.09;100834.53;5035188;28;20167;-77
2021/06/18 08:34:19;;;;;;;3.45;1.20;;;;;;;37.76;14.73;100839.38;5035641;28;20081;-78
2021/06/18 08:36:45;;;;;;;1.67;1.15;;;;;;;37.91;14.43;100835.00;5035048;28;20348;-74
2021/06/18 08:39:11;;;;;;;3.15;1.27;;;;;;;40.05;13.44;100830.34;5034469;28;20048;-76
2021/06/18 08:41:37;;;;;;;3.90;1.20;;;;;;;39.75;12.94;100821.13;5034757;28;20033;-83
2021/06/18 08:44:04;;;;;;;3.38;0.93;;;;;;;39.19;12.98;100823.00;5034891;28;20124;-78
2021/06/18 08:46:30;;;;;;;2.85;1.15;;;;;;;38.48;13.62;100822.91;5034991;28;20041;-81
2021/06/18 08:48:56;;;;;;;1.77;0.90;;;;;;;38.51;13.53;100821.53;5033600;28;20037;-81
2021/06/18 08:51:22;;;;;;;2.92;1.10;;;;;;;39.00;13.82;100822.81;5032961;28;20034;-78
2021/06/18 08:53:48;;;;;;;1.70;1.00;;;;;;;39.31;13.13;100823.53;5034956;28;20033;-79
2021/06/18 08:56:14;;;;;;;1.52;1.00;;;;;;;39.95;12.64;100822.91;5049607;28;20497;-79
2021/06/18 08:58:40;;;;;;;4.05;1.20;;;;;;;40.48;12.54;100816.69;5034798;28;20072;-85
2021/06/18 09:01:06;;;;;;;1.77;1.10;;;;;;;41.70;11.98;100818.31;5033177;28;20040;-78
2021/06/18 09:03:41;;;;;;;1.35;0.80;;;;;;;42.62;10.79;100815.16;5014988;28;20034;-77
2021/06/18 09:06:36;;;;;;;2.40;0.93;;;;;;;42.65;10.95;100813.72;5013563;28;20049;-80
2021/06/18 09:09:22;;;;;;;2.33;1.10;;;;;;;40.92;12.50;100809.31;5015015;28;20477;-81
2021/06/18 09:11:59;;;;;;;3.15;1.60;;;;;;;40.07;13.35;100809.53;5013687;28;20105;-79
2021/06/18 09:14:30;;;;;;;4.60;1.10;;;;;;;39.19;14.04;100811.94;5014614;28;20038;-77
2021/06/18 09:17:27;;;;;;;2.63;1.00;;;;;;;39.02;13.92;100804.00;5014699;28;20034;-78
2021/06/18 09:19:56;;;;;;;2.63;1.08;;;;;;;38.06;14.81;100799.13;5014355;28;20042;-75
2021/06/18 09:22:33;;;;;;;3.00;1.13;;;;;;;37.70;15.41;100813.66;5013040;28;20041;-81
2021/06/18 09:25:19;;;;;;;3.45;0.90;;;;;;;36.51;15.93;100797.63;5014623;28;20045;-76
2021/06/18 09:27:49;;;;;;;2.70;2.50;;;;;;;36.85;16.45;100809.19;5013956;28;20049;-77
2021/06/18 09:30:21;;;;;;;2.05;0.90;;;;;;;38.68;14.16;100793.53;5013866;28;20348;-79
2021/06/18 09:33:03;;;;;;;10.15;8.82;;;;;;;38.90;14.43;100796.00;5014437;28;20033;-76
2021/06/18 09:35:30;;;;;;;1.00;0.90;;;;;;;37.27;16.04;100803.84;5013798;28;20507;-79
2021/06/18 09:37:58;;;;;;;8.18;7.38;;;;;;;36.92;16.46;100803.41;5013686;28;20042;-75
2021/06/18 09:40:26;;;;;;;4.03;1.75;;;;;;;37.65;15.83;100788.00;5013380;28;20029;-80
2021/06/18 09:42:58;;;;;;;2.17;1.08;;;;;;;37.46;16.08;100794.03;5013288;28;20034;-80
2021/06/18 09:45:25;;;;;;;2.08;0.82;;;;;;;38.63;15.07;100783.34;5013465;28;20117;-79
2021/06/18 09:47:52;;;;;;;3.33;1.58;;;;;;;39.11;14.43;100790.41;5012175;28;20038;-80
2021/06/18 09:50:31;;;;;;;6.47;1.00;;;;;;;38.17;14.95;100777.81;5013785;28;20072;-79
2021/06/18 09:53:17;;;;;;;3.60;0.93;;;;;;;37.42;15.84;100783.78;5013622;28;20041;-75
2021/06/18 09:55:47;;;;;;;3.33;0.77;;;;;;;36.39;17.00;100779.34;5013710;28;20084;-78
2021/06/18 09:58:13;;;;;;;3.08;0.98;;;;;;;35.53;17.90;100778.25;4996107;28;20427;-78
2021/06/18 10:00:40;;;;;;;2.80;0.70;;;;;;;34.73;18.17;100770.34;5012895;28;20073;-80
2021/06/18 10:03:10;;;;;;;2.83;0.80;;;;;;;33.96;18.67;100782.78;5029979;28;20037;-77
2021/06/18 10:05:37;;;;;;;2.00;0.80;;;;;;;34.98;18.38;100780.88;5011432;28;20041;-76
2021/06/18 10:08:03;;;;;;;5.93;0.77;;;;;;;35.01;18.61;100778.72;5012995;28;20045;-80
2021/06/18 10:10:33;;;;;;;0.95;0.60;;;;;;;35.09;17.96;100783.75;5013127;28;20030;-77
2021/06/18 10:12:59;;;;;;;3.80;0.70;;;;;;;35.03;17.96;100780.13;5013503;28;20038;-78
2021/06/18 10:15:28;;;;;;;2.13;0.68;;;;;;;35.03;17.68;100771.88;5013095;28;20033;-79
2021/06/18 10:17:55;;;;;;;0.82;0.57;;;;;;;34.46;18.46;100765.53;5012866;28;20037;-78
2021/06/18 10:20:27;;;;;;;1.38;0.75;;;;;;;34.76;18.25;100771.75;5013127;28;20033;-76
2021/06/18 10:23:06;;;;;;;2.03;0.70;;;;;;;34.07;18.78;100759.09;5012338;28;20034;-77
2021/06/18 10:25:56;;;;;;;2.35;0.60;;;;;;;34.08;18.89;100749.78;5012320;28;20379;-77
2021/06/18 10:28:33;;;;;;;1.00;0.60;;;;;;;33.56;19.37;100768.06;5011706;28;20057;-80
2021/06/18 10:31:06;;;;;;;2.83;0.60;;;;;;;33.11;19.85;100763.28;5013412;28;20038;-77
2021/06/18 10:33:37;;;;;;;1.40;0.80;;;;;;;33.61;19.40;100756.34;5011999;28;20493;-77
2021/06/18 10:36:06;;;;;;;1.42;0.60;;;;;;;33.72;19.30;100744.47;5012937;28;20084;-78
2021/06/18 10:38:36;;;;;;;2.25;0.50;;;;;;;33.48;19.64;100749.25;5012905;28;20420;-75
2021/06/18 10:41:18;;;;;;;2.92;0.57;;;;;;;33.11;20.06;100749.56;5013169;28;20411;-81
2021/06/18 10:43:52;;;;;;;2.60;0.63;;;;;;;32.83;20.09;100742.97;5012367;28;20487;-77
2021/06/18 10:46:30;;;;;;;0.93;0.60;;;;;;;31.74;20.89;100742.19;5012915;28;20446;-75
2021/06/18 10:48:58;;;;;;;3.53;0.70;;;;;;;31.68;21.55;100746.72;5012795;28;20443;-78
2021/06/18 10:51:29;;;;;;;2.15;0.80;;;;;;;31.59;21.46;100750.81;5012851;28;20038;-75
2021/06/18 10:54:03;;;;;;;5.20;1.00;;;;;;;31.28;21.90;100752.72;4979497;28;20068;-78
2021/06/18 10:56:44;;;;;;;4.00;1.00;;;;;;;31.34;21.90;100746.31;5011332;28;20395;-79
2021/06/18 10:59:25;;;;;;;2.83;0.70;;;;;;;31.17;22.14;100742.50;4995618;28;20052;-79
2021/06/18 11:01:51;;;;;;;0.85;0.40;;;;;;;31.37;22.04;100743.13;5019539;28;20045;-75
2021/06/18 11:04:44;;;;;;;2.97;0.60;;;;;;;31.80;21.71;100734.97;5032350;28;20044;-79
2021/06/18 11:07:35;;;;;;;2.03;0.60;;;;;;;31.23;22.17;100736.13;5047605;28;20033;-76
2021/06/18 11:10:05;;;;;;;2.67;0.90;;;;;;;31.51;22.62;100741.03;5030973;28;20026;-76
2021/06/18 11:12:31;;;;;;;2.40;0.70;;;;;;;31.86;22.20;100736.78;5031421;28;20034;-82
2021/06/18 11:15:02;;;;;;;1.30;0.65;;;;;;;31.16;22.25;100740.88;5014696;28;20076;-76
2021/06/18 11:17:37;;;;;;;1.73;0.82;;;;;;;30.75;22.75;100735.81;5032358;28;20034;-80
2021/06/18 11:20:05;;;;;;;1.35;0.80;;;;;;;30.76;22.81;100729.28;5032543;28;20064;-74
2021/06/18 11:22:35;;;;;;;2.00;0.70;;;;;;;30.21;23.30;100734.63;5030447;28;20124;-77
2021/06/18 11:25:01;;;;;;;1.02;0.60;;;;;;;29.88;24.09;100724.78;5032056;28;20072;-78
2021/06/18 11:27:32;;;;;;;3.03;0.70;;;;;;;29.35;24.84;100726.78;5031681;28;20420;-80
2021/06/18 11:30:25;;;;;;;1.42;0.60;;;;;;;29.53;25.27;100723.31;5032117;28;20038;-78
2021/06/18 11:32:52;;;;;;;0.95;0.57;;;;;;;29.42;25.04;100718.56;5031742;28;20029;-75